createdAt,value
2018-01-31T01:54:06.195Z,2.30
2018-01-31T01:56:36.825Z,2.30
2018-01-31T01:59:07.100Z,2.30
2018-01-31T02:01:37.542Z,2.40
2018-01-31T02:04:09.050Z,2.40
2018-01-31T02:06:39.658Z,2.40
2018-01-31T02:09:10.089Z,2.50
2018-01-31T02:11:40.529Z,2.50
2018-01-31T02:14:10.959Z,2.60
2018-01-31T02:16:43.978Z,2.70
2018-01-31T02:19:15.158Z,2.80
2018-01-31T02:21:45.666Z,2.80
2018-01-31T02:24:16.435Z,2.90
2018-01-31T02:26:46.819Z,2.90
2018-01-31T02:29:17.254Z,3.00
2018-01-31T02:31:48.605Z,3.10
2018-01-31T02:34:19.965Z,3.10
2018-01-31T02:36:51.353Z,3.10
2018-01-31T02:39:31.043Z,3.10
2018-01-31T02:42:01.431Z,3.20
2018-01-31T02:44:32.270Z,3.30
2018-01-31T02:47:03.081Z,3.30
2018-01-31T02:49:33.645Z,3.20
2018-01-31T02:52:04.186Z,3.30
2018-01-31T02:54:35.821Z,3.30
2018-01-31T02:57:07.213Z,3.40
2018-01-31T02:59:37.638Z,3.40
2018-01-31T03:02:07.925Z,3.40
2018-01-31T03:04:38.574Z,3.50
2018-01-31T03:07:09.198Z,3.50
2018-01-31T03:09:40.377Z,3.50
2018-01-31T03:12:11.022Z,3.50
2018-01-31T03:14:42.540Z,3.60
2018-01-31T03:17:12.950Z,3.60
2018-01-31T03:19:43.662Z,3.60
2018-01-31T03:22:14.144Z,3.70
2018-01-31T03:24:45.045Z,3.70
2018-01-31T03:27:16.480Z,3.70
2018-01-31T03:29:46.862Z,3.70
2018-01-31T03:32:18.209Z,3.70
2018-01-31T03:34:48.586Z,3.80
2018-01-31T03:37:20.158Z,3.90
2018-01-31T03:39:50.575Z,3.90
2018-01-31T03:42:20.958Z,3.90
2018-01-31T03:44:51.753Z,3.90
2018-01-31T03:47:22.413Z,4.00
2018-01-31T03:49:52.794Z,4.10
2018-01-31T03:52:23.885Z,4.10
2018-01-31T03:54:54.746Z,4.10
2018-01-31T03:57:25.421Z,4.10
2018-01-31T03:59:55.745Z,4.20
2018-01-31T04:02:26.391Z,4.20
2018-01-31T04:04:56.935Z,4.20
2018-01-31T04:07:27.404Z,4.20
2018-01-31T04:09:58.251Z,4.30
2018-01-31T04:12:28.589Z,4.30
2018-01-31T04:14:59.116Z,4.20
2018-01-31T04:17:29.672Z,4.30
2018-01-31T04:20:00.425Z,4.40
2018-01-31T04:22:31.522Z,4.30
2018-01-31T04:25:02.169Z,4.30
2018-01-31T04:27:32.714Z,4.40
2018-01-31T04:30:03.084Z,4.40
2018-01-31T04:32:33.490Z,4.40
2018-01-31T04:35:04.947Z,4.50
2018-01-31T04:37:36.090Z,4.50
2018-01-31T04:40:06.447Z,4.50
2018-01-31T04:42:37.140Z,4.50
2018-01-31T04:45:08.994Z,4.60
2018-01-31T04:47:40.982Z,4.60
2018-01-31T04:50:11.964Z,4.70
2018-01-31T04:52:42.282Z,4.80
2018-01-31T04:55:12.634Z,4.70
2018-01-31T04:57:43.291Z,4.70
2018-01-31T05:00:16.403Z,4.60
2018-01-31T05:02:47.639Z,4.50
2018-01-31T05:05:18.473Z,4.60
2018-01-31T05:07:49.241Z,4.50
2018-01-31T05:10:20.033Z,4.50
2018-01-31T05:12:51.592Z,4.50
2018-01-31T05:15:24.440Z,4.60
2018-01-31T05:17:55.030Z,4.60
2018-01-31T05:20:25.679Z,4.60
2018-01-31T05:22:56.053Z,4.70
2018-01-31T05:25:26.406Z,4.70
2018-01-31T05:27:57.181Z,4.70
2018-01-31T05:30:28.225Z,4.90
2018-01-31T05:32:58.558Z,4.80
2018-01-31T05:35:31.057Z,4.90
2018-01-31T05:38:01.809Z,4.90
2018-01-31T05:40:32.122Z,5.00
2018-01-31T05:43:02.762Z,5.00
2018-01-31T05:45:33.372Z,5.10
2018-01-31T05:48:04.241Z,5.00
2018-01-31T05:50:36.117Z,5.10
2018-01-31T05:53:07.823Z,5.10
2018-01-31T05:55:38.158Z,5.10
2018-01-31T05:58:08.813Z,5.20
2018-01-31T06:00:39.438Z,5.20
2018-01-31T06:03:10.926Z,5.30
2018-01-31T06:05:42.421Z,5.30
2018-01-31T06:08:13.055Z,5.30
2018-01-31T06:10:44.669Z,5.30
2018-01-31T06:13:18.139Z,5.40
2018-01-31T06:15:52.732Z,5.40
2018-01-31T06:18:24.335Z,5.30
2018-01-31T06:20:55.495Z,5.00
2018-01-31T06:23:26.253Z,5.00
2018-01-31T06:25:56.587Z,5.10
2018-01-31T06:28:26.906Z,5.10
2018-01-31T06:30:57.301Z,5.00
2018-01-31T06:33:28.175Z,5.00
2018-01-31T06:36:01.701Z,5.00
2018-01-31T06:38:32.181Z,5.10
2018-01-31T06:41:03.061Z,5.10
2018-01-31T06:43:34.083Z,5.10
2018-01-31T06:46:06.128Z,5.10
2018-01-31T06:48:36.853Z,5.10
2018-01-31T06:51:11.360Z,5.00
2018-01-31T06:53:41.716Z,5.00
2018-01-31T06:56:12.335Z,5.10
2018-01-31T06:58:42.684Z,5.10
2018-01-31T07:01:13.469Z,5.10
2018-01-31T07:03:43.802Z,5.00
2018-01-31T07:06:14.696Z,5.00
2018-01-31T07:08:47.009Z,5.20
2018-01-31T07:11:17.794Z,5.20
2018-01-31T07:13:48.366Z,5.10
2018-01-31T07:16:28.123Z,5.10
2018-01-31T07:19:00.377Z,5.10
2018-01-31T07:21:36.447Z,5.20
2018-01-31T07:24:14.632Z,5.30
2018-01-31T07:26:49.369Z,5.30
2018-01-31T07:29:20.593Z,5.40
2018-01-31T07:31:51.763Z,5.40
2018-01-31T07:34:24.944Z,5.40
2018-01-31T07:36:55.566Z,5.50
2018-01-31T07:39:26.627Z,5.60
2018-01-31T07:41:57.301Z,5.60
2018-01-31T07:44:28.350Z,5.60
2018-01-31T07:46:59.830Z,5.70
2018-01-31T07:49:30.950Z,5.70
2018-01-31T07:52:02.014Z,5.70
2018-01-31T07:54:34.536Z,5.80
2018-01-31T07:57:07.175Z,5.90
2018-01-31T07:59:38.229Z,5.90
2018-01-31T08:02:16.898Z,5.90
2018-01-31T08:04:57.177Z,5.90
2018-01-31T08:07:34.883Z,6.00
2018-01-31T08:10:07.926Z,6.20
2018-01-31T08:12:38.686Z,6.20
2018-01-31T08:15:10.310Z,6.30
2018-01-31T08:17:40.634Z,6.30
2018-01-31T08:20:11.326Z,6.40
2018-01-31T08:22:52.649Z,6.50
2018-01-31T08:25:25.983Z,6.50
2018-01-31T08:27:56.959Z,6.60
2018-01-31T08:30:28.255Z,6.70
2018-01-31T08:32:59.565Z,6.90
2018-01-31T08:35:30.713Z,7.00
2018-01-31T08:38:02.406Z,7.00
2018-01-31T08:40:32.761Z,7.00
2018-01-31T08:43:07.509Z,7.00
2018-01-31T08:45:40.508Z,7.10
2018-01-31T08:48:12.434Z,7.20
2018-01-31T08:50:43.994Z,7.20
2018-01-31T08:53:15.510Z,7.40
2018-01-31T08:55:47.058Z,7.30
2018-01-31T08:58:17.740Z,7.30
2018-01-31T09:00:48.629Z,7.30
2018-01-31T09:03:19.055Z,7.30
2018-01-31T09:06:09.505Z,7.40
2018-01-31T09:08:44.123Z,7.40
2018-01-31T09:11:15.574Z,7.50
2018-01-31T09:13:52.083Z,7.50
2018-01-31T09:16:25.371Z,7.60
2018-01-31T09:19:00.566Z,7.90
2018-01-31T09:22:22.486Z,7.70
2018-01-31T09:25:41.215Z,7.90
2018-01-31T09:28:15.399Z,7.90
2018-01-31T09:30:57.060Z,8.10
2018-01-31T09:33:35.222Z,8.20
2018-01-31T09:36:14.906Z,8.20
2018-01-31T09:38:47.025Z,8.20
2018-01-31T09:41:17.812Z,8.30
2018-01-31T09:43:48.965Z,8.40
2018-01-31T09:46:19.746Z,8.40
2018-01-31T09:48:51.222Z,8.40
2018-01-31T09:51:22.106Z,8.30
2018-01-31T09:53:53.606Z,8.40
2018-01-31T09:56:25.188Z,8.40
2018-01-31T09:58:56.426Z,8.40
2018-01-31T10:01:28.421Z,8.40
2018-01-31T10:04:00.408Z,8.40
2018-01-31T10:06:32.652Z,8.40
2018-01-31T10:09:03.701Z,8.50
2018-01-31T10:11:35.134Z,8.40
2018-01-31T10:14:05.539Z,8.30
2018-01-31T10:16:36.905Z,8.40
2018-01-31T10:19:09.170Z,8.40
2018-01-31T10:21:39.541Z,8.40
2018-01-31T10:24:09.901Z,8.50
2018-01-31T10:26:40.477Z,8.50
2018-01-31T10:29:11.679Z,8.50
2018-01-31T10:31:44.887Z,8.50
2018-01-31T10:34:21.833Z,8.50
2018-01-31T10:36:52.262Z,8.50
2018-01-31T10:39:23.728Z,8.60
2018-01-31T10:41:54.376Z,8.60
2018-01-31T10:44:25.768Z,8.70
2018-01-31T10:46:56.132Z,8.70
2018-01-31T10:49:26.747Z,8.70
2018-01-31T10:51:57.102Z,8.60
2018-01-31T10:57:29.793Z,8.60
2018-01-31T10:59:30.683Z,8.70
2018-01-31T11:02:01.430Z,8.60
2018-01-31T11:04:32.594Z,8.70
2018-01-31T11:07:02.986Z,8.70
2018-01-31T11:09:33.889Z,8.80
2018-01-31T11:12:04.281Z,8.70
2018-01-31T11:14:34.593Z,8.80
2018-01-31T11:17:05.425Z,8.70
2018-01-31T11:19:36.050Z,8.70
2018-01-31T11:22:06.451Z,8.70
2018-01-31T11:24:37.136Z,8.70
2018-01-31T11:27:08.509Z,8.80
2018-01-31T11:29:39.666Z,8.70
2018-01-31T11:32:10.561Z,8.70
2018-01-31T11:34:42.081Z,8.80
2018-01-31T11:37:12.727Z,8.80
2018-01-31T11:39:43.241Z,8.80
2018-01-31T11:42:14.445Z,8.80
2018-01-31T11:44:45.298Z,8.80
2018-01-31T11:47:17.366Z,8.80
2018-01-31T11:49:48.129Z,8.80
2018-01-31T11:52:18.861Z,8.80
2018-01-31T11:54:49.423Z,8.90
2018-01-31T11:57:20.062Z,8.90
2018-01-31T11:59:50.665Z,9.00
2018-01-31T12:02:21.023Z,8.90
2018-01-31T12:04:52.218Z,8.90
2018-01-31T12:07:24.541Z,8.90
2018-01-31T12:09:55.671Z,8.90
2018-01-31T12:12:35.125Z,8.90
2018-01-31T12:15:38.130Z,8.90
2018-01-31T12:18:09.109Z,8.90
2018-01-31T12:20:50.169Z,8.90
2018-01-31T12:26:38.849Z,8.90
2018-01-31T12:31:22.685Z,9.00
2018-01-31T12:36:07.929Z,9.10
2018-01-31T12:38:49.096Z,9.00
2018-01-31T12:41:18.305Z,9.10
2018-01-31T12:43:46.940Z,9.10
2018-01-31T12:48:29.194Z,9.00
2018-01-31T12:51:41.005Z,9.00
2018-01-31T12:54:22.778Z,8.90
2018-01-31T12:57:03.709Z,8.90
2018-01-31T12:59:45.723Z,8.90
2018-01-31T13:02:25.821Z,8.80
2018-01-31T13:05:12.682Z,8.80
2018-01-31T13:07:53.511Z,8.80
2018-01-31T13:12:42.454Z,8.70
2018-01-31T13:15:56.112Z,8.70
2018-01-31T13:18:37.967Z,8.70
2018-01-31T13:22:24.747Z,8.70
2018-01-31T13:25:13.782Z,8.70
2018-01-31T13:27:59.546Z,8.50
2018-01-31T13:30:58.573Z,8.50
2018-01-31T13:35:43.434Z,8.20
2018-01-31T13:40:26.964Z,8.10
2018-01-31T13:43:06.009Z,8.10
2018-01-31T13:47:51.510Z,8.10
2018-01-31T13:51:08.312Z,8.10
2018-01-31T13:53:49.294Z,8.00
2018-01-31T13:56:30.339Z,8.10
2018-01-31T14:01:15.207Z,8.10
2018-01-31T14:04:13.864Z,8.10
2018-01-31T14:06:54.837Z,8.20
2018-01-31T14:09:35.894Z,8.20
2018-01-31T14:12:16.752Z,8.10
2018-01-31T14:19:00.876Z,8.00
2018-01-31T14:21:42.719Z,7.70
2018-01-31T14:24:22.463Z,7.80
2018-01-31T14:29:05.410Z,7.90
2018-01-31T14:31:51.354Z,7.80
2018-01-31T14:36:40.884Z,7.60
2018-01-31T14:39:09.636Z,7.60
2018-01-31T14:41:39.134Z,7.50
2018-01-31T14:44:08.031Z,7.40
2018-01-31T14:46:37.527Z,7.30
2018-01-31T14:49:06.219Z,7.30
2018-01-31T14:51:36.023Z,7.40
2018-01-31T14:54:05.405Z,7.30
2018-01-31T14:56:34.192Z,7.30
2018-01-31T14:59:02.965Z,7.30
2018-01-31T15:01:32.266Z,7.20
2018-01-31T15:04:00.834Z,7.20
2018-01-31T15:06:29.594Z,7.30
2018-01-31T15:08:59.080Z,7.20
2018-01-31T15:11:27.747Z,7.20
2018-01-31T15:13:56.513Z,7.20
2018-01-31T15:16:25.040Z,7.20
2018-01-31T15:18:54.350Z,7.20
2018-01-31T15:21:23.097Z,7.20
2018-01-31T15:23:51.737Z,7.10
2018-01-31T15:26:20.225Z,7.10
2018-01-31T15:28:49.082Z,7.10
2018-01-31T15:31:19.634Z,7.10
2018-01-31T15:33:48.146Z,7.00
2018-01-31T15:36:16.977Z,7.00
2018-01-31T15:38:45.593Z,7.10
2018-01-31T15:41:14.293Z,7.10
2018-01-31T15:43:42.989Z,7.00
2018-01-31T15:46:13.834Z,7.00
2018-01-31T15:48:42.538Z,7.10
2018-01-31T15:51:11.408Z,7.00
2018-01-31T15:53:39.955Z,7.00
2018-01-31T15:56:08.467Z,7.00
2018-01-31T15:58:37.254Z,7.00
2018-01-31T16:01:06.100Z,7.10
2018-01-31T16:03:34.573Z,7.10
2018-01-31T16:06:03.305Z,7.10
2018-01-31T16:08:32.030Z,7.10
2018-01-31T16:11:01.493Z,7.00
2018-01-31T16:13:30.255Z,6.90
2018-01-31T16:15:58.799Z,5.20
2018-01-31T16:18:38.377Z,4.20
2018-01-31T16:21:24.404Z,4.20
2018-01-31T16:23:55.422Z,4.10
2018-01-31T16:26:25.870Z,4.10
2018-01-31T16:29:07.774Z,4.10
2018-01-31T16:31:47.649Z,4.20
2018-01-31T16:34:18.106Z,4.20
2018-01-31T16:36:48.500Z,4.30
2018-01-31T16:39:18.705Z,4.30
2018-01-31T16:41:49.585Z,4.40
2018-01-31T16:44:19.930Z,4.40
2018-01-31T16:46:51.070Z,4.40
2018-01-31T16:49:22.008Z,4.40
2018-01-31T16:51:52.457Z,4.40
2018-01-31T16:54:22.536Z,4.40
2018-01-31T16:56:52.713Z,4.30
2018-01-31T16:59:23.930Z,4.40
2018-01-31T17:01:54.076Z,4.40
2018-01-31T17:04:24.234Z,4.40
2018-01-31T17:06:54.619Z,4.40
2018-01-31T17:09:24.987Z,4.40
2018-01-31T17:11:55.194Z,4.40
2018-01-31T17:14:25.841Z,4.40
2018-01-31T17:16:56.499Z,4.50
2018-01-31T17:19:27.073Z,4.50
2018-01-31T17:21:57.698Z,4.50
2018-01-31T17:24:28.009Z,4.50
2018-01-31T17:26:58.441Z,4.50
2018-01-31T17:29:29.242Z,4.50
2018-01-31T17:32:00.553Z,4.50
2018-01-31T17:34:32.512Z,4.50
2018-01-31T17:37:03.211Z,4.50
2018-01-31T17:39:34.057Z,4.50
2018-01-31T17:42:19.193Z,4.50
2018-01-31T17:44:50.731Z,4.50
2018-01-31T17:47:21.571Z,4.50
2018-01-31T17:49:52.767Z,4.40
2018-01-31T17:52:23.381Z,4.40
2018-01-31T17:54:55.956Z,4.40
2018-01-31T17:57:28.285Z,4.50
2018-01-31T18:00:00.140Z,4.60
2018-01-31T18:02:31.561Z,4.50
2018-01-31T18:05:02.668Z,4.50
2018-01-31T18:07:35.386Z,4.50
2018-01-31T18:10:06.105Z,4.50
2018-01-31T18:12:37.528Z,4.50
2018-01-31T18:15:08.751Z,4.50
2018-01-31T18:17:40.473Z,4.40
2018-01-31T18:20:13.290Z,4.40
2018-01-31T18:22:44.482Z,4.40
2018-01-31T18:25:14.909Z,4.40
2018-01-31T18:27:47.733Z,4.30
2018-01-31T18:30:19.016Z,4.40
2018-01-31T18:32:50.519Z,4.40
2018-01-31T18:35:21.420Z,4.40
2018-01-31T18:37:52.027Z,4.40
2018-01-31T18:40:23.604Z,4.40
2018-01-31T18:42:54.273Z,4.40
2018-01-31T18:45:24.573Z,4.40
2018-01-31T18:47:55.469Z,4.40
2018-01-31T18:50:25.898Z,4.40
2018-01-31T18:52:56.262Z,4.30
2018-01-31T18:55:27.760Z,4.30
2018-01-31T18:57:59.063Z,4.40
2018-01-31T19:00:29.762Z,4.40
2018-01-31T19:03:00.516Z,4.40
2018-01-31T19:05:31.071Z,4.50
2018-01-31T19:08:01.448Z,4.50
2018-01-31T19:10:31.996Z,4.50
2018-01-31T19:13:02.368Z,4.50
2018-01-31T19:15:33.584Z,4.50
2018-01-31T19:18:05.388Z,4.40
2018-01-31T19:20:35.859Z,4.40
2018-01-31T19:23:06.516Z,4.40
2018-01-31T19:25:36.926Z,4.50
2018-01-31T19:28:07.792Z,4.40
2018-01-31T19:30:38.238Z,4.40
2018-01-31T19:33:08.599Z,4.40
2018-01-31T19:35:39.197Z,4.40
2018-01-31T19:38:09.826Z,4.40
2018-01-31T19:40:41.189Z,4.40
2018-01-31T19:43:12.428Z,4.40
2018-01-31T19:45:43.195Z,4.40
2018-01-31T19:48:14.674Z,4.40
2018-01-31T19:51:11.822Z,4.40
2018-01-31T19:53:42.572Z,4.40
2018-01-31T19:56:12.893Z,4.40
2018-01-31T19:58:43.317Z,4.40
2018-01-31T20:01:13.785Z,4.30
2018-01-31T20:03:44.568Z,4.30
2018-01-31T20:06:15.993Z,4.30
2018-01-31T20:08:48.233Z,4.20
2018-01-31T20:11:19.405Z,4.20
2018-01-31T20:13:51.566Z,4.20
2018-01-31T20:16:22.352Z,4.10
2018-01-31T20:18:52.830Z,4.20
2018-01-31T20:21:23.648Z,4.20
2018-01-31T20:23:55.410Z,4.10
2018-01-31T20:26:27.086Z,4.10
2018-01-31T20:28:58.490Z,4.10
2018-01-31T20:31:30.641Z,4.10
2018-01-31T20:34:02.182Z,4.10
2018-01-31T20:36:33.159Z,4.10
2018-01-31T20:39:06.274Z,4.10
2018-01-31T20:41:37.567Z,4.00
2018-01-31T20:44:08.383Z,4.00
2018-01-31T20:46:39.192Z,4.00
2018-01-31T20:49:10.569Z,4.00
2018-01-31T20:51:40.995Z,4.00
2018-01-31T20:54:11.891Z,4.00
2018-01-31T20:56:42.394Z,4.00
2018-01-31T20:59:12.786Z,4.00
2018-01-31T21:01:45.885Z,3.90
2018-01-31T21:04:16.865Z,3.90
2018-01-31T21:06:48.068Z,3.90
2018-01-31T21:09:19.366Z,3.90
2018-01-31T21:11:51.537Z,3.80
2018-01-31T21:14:23.183Z,3.70
2018-01-31T21:16:54.369Z,3.60
2018-01-31T21:19:26.050Z,3.60
2018-01-31T21:21:57.509Z,3.60
2018-01-31T21:24:29.385Z,3.50
2018-01-31T21:27:00.010Z,3.50
2018-01-31T21:29:30.637Z,3.40
2018-01-31T21:32:01.134Z,3.40
2018-01-31T21:34:32.572Z,3.50
2018-01-31T21:37:04.081Z,3.40
2018-01-31T21:39:36.291Z,3.40
2018-01-31T21:42:07.090Z,3.40
2018-01-31T21:44:38.638Z,3.40
2018-01-31T21:47:10.164Z,3.30
2018-01-31T21:49:41.017Z,3.30
2018-01-31T21:52:11.426Z,3.30
2018-01-31T21:54:42.121Z,3.30
2018-01-31T21:57:12.553Z,3.30
2018-01-31T21:59:43.252Z,3.40
2018-01-31T22:02:14.370Z,3.30
2018-01-31T22:04:44.678Z,3.30
2018-01-31T22:07:18.974Z,3.30
2018-01-31T22:09:49.530Z,3.40
2018-01-31T22:12:19.857Z,3.40
2018-01-31T22:14:50.408Z,3.30
2018-01-31T22:17:24.477Z,3.30
2018-01-31T22:19:55.205Z,3.30
2018-01-31T22:22:25.606Z,3.30
2018-01-31T22:24:58.169Z,3.30
2018-01-31T22:27:29.916Z,3.30
2018-01-31T22:30:00.381Z,3.30
2018-01-31T22:32:31.554Z,3.30
2018-01-31T22:35:02.730Z,3.50
2018-01-31T22:37:34.081Z,3.50
2018-01-31T22:40:04.984Z,3.40
2018-01-31T22:42:36.467Z,3.50
2018-01-31T22:45:07.987Z,3.40
2018-01-31T22:47:38.656Z,3.40
2018-01-31T22:50:09.166Z,3.30
2018-01-31T22:52:39.741Z,3.30
2018-01-31T22:55:10.549Z,3.30
2018-01-31T22:57:40.915Z,3.30
2018-01-31T23:00:13.910Z,3.20
2018-01-31T23:02:47.413Z,3.20
2018-01-31T23:05:18.414Z,3.20
2018-01-31T23:08:09.864Z,3.10
2018-01-31T23:10:40.277Z,3.00
2018-01-31T23:13:15.031Z,3.10
2018-01-31T23:15:45.546Z,3.10
2018-01-31T23:18:19.323Z,3.00
2018-01-31T23:20:50.687Z,3.00
2018-01-31T23:23:21.237Z,3.00
2018-01-31T23:25:52.896Z,3.00
2018-01-31T23:28:24.482Z,2.90
2018-01-31T23:30:54.922Z,2.90
2018-01-31T23:33:26.037Z,2.80
2018-01-31T23:35:56.542Z,2.80
2018-01-31T23:38:27.202Z,2.70
2018-01-31T23:40:57.765Z,2.70
2018-01-31T23:43:28.369Z,2.70
2018-01-31T23:45:58.765Z,2.60
2018-01-31T23:48:29.478Z,2.50
2018-01-31T23:51:00.878Z,2.50
2018-01-31T23:53:31.545Z,2.40
2018-01-31T23:56:02.393Z,2.40
2018-01-31T23:58:32.682Z,2.40
